Tiempo atmosférico en la estación meteorológica de Agüimes, Las Palmas (306 m.)

Fecha
DESCASC
Temp. máxima en grados centígrados (hora)
DESCASC
Temp. mínima en grados centígrados (hora)
DESCASC
Temp. media en grados centígrados
DESCASC
Racha de viento máxima en m/sg (hora)
DESCASC
Velocidad máxima media en intervalos de 10 minutos(hora)
DESCASC
Precipitaciones diarias en mm
DESCASC
Precipitaciones de 00:00 a 06:00 en mm
DESCASC
Precipitaciones de 06:00 a 12:00 en mm
DESCASC
Precipitaciones de 12:00 a 18:00 en mm
DESCASC
Precipitaciones de 18:00 a 24:00 en mm
DESCASC
24-09-2017 32.1 (14:20) 19.8 (07:50) 25.9 11.39 (23:59) 6.67 (23:59) 0 0 0 0 0
23-09-2017 26.5 (11:30) 20.7 (00:30) 23.6 22.5 (09:20) 13.61 (15:50) 0 0 0 0 0
22-09-2017 25.6 (15:00) 18.9 (05:50) 22.3 22.78 (14:40) 15.56 (14:00) 0 0 0 0 0
21-09-2017 25.6 (15:50) 19.3 (00:00) 22.4 15.56 (16:30) 9.72 (18:40) 1 0 0.4 0.4 0.2
20-09-2017 25.8 (15:50) 18.9 (00:00) 22.3 15.28 (14:30) 11.39 (03:10) 0 0 0 0 0
19-09-2017 26.5 (13:50) 18.7 (00:00) 22.6 14.44 (23:59) 11.39 (21:50) 0 0 0 0 0
18-09-2017 27.9 (16:30) 19 (00:00) 23.4 16.39 (09:00) 11.67 (09:40) 0 0 0 0 0
17-09-2017 27 (14:40) 19.1 (00:00) 23.1 16.39 (09:50) 11.39 (09:50) 0 0 0 0 0
16-09-2017 27.7 (14:30) 20 (00:00) 23.9 17.22 (14:50) 11.67 (15:40) 0 0 0 0 0
15-09-2017 33.3 (13:50) 22.4 (00:00) 27.8 14.17 (21:20) 9.72 (22:30) 0 0 0 0 0
14-09-2017 32.7 (15:20) 22.8 (00:00) 27.8 7.5 (12:00) 5.83 (12:10) 0 0 0 0 0
13-09-2017 27.7 (15:20) 17.6 (00:00) 22.7 7.5 (21:30) 5.28 (21:30) 0 0 0 0 0
12-09-2017 27.9 (16:20) 17.8 (00:00) 22.8 13.33 (14:40) 8.33 (13:30) 0 0 0 0 0
11-09-2017 28.5 (13:20) 18.6 (00:00) 23.6 13.89 (00:20) 9.72 (00:20) 0 0 0 0 0
10-09-2017 27.2 (15:20) 19.3 (00:00) 23.3 20 (12:00) 13.89 (12:00) 0 0 0 0 0
09-09-2017 31 (14:20) 20.1 (00:00) 25.6 16.94 (23:00) 12.5 (23:00) 0 0 0 0 0
08-09-2017 33.9 (14:10) 19.5 (00:00) 26.7 13.61 (17:30) 10 (18:00) 0 0 0 0 0
07-09-2017 32.3 (13:40) 20.8 (00:00) 26.5 18.89 (01:30) 11.67 (01:00) 0 0 0 0 0
06-09-2017 32.9 (15:50) 19.8 (00:00) 26.4 16.39 (13:10) 11.67 (12:30) 0 0 0 0 0
05-09-2017 28.5 (15:20) 21.8 (00:00) 25.1 18.61 (21:10) 13.33 (16:00) 0 0 0 0 0
04-09-2017 33.4 (15:00) 20.4 (00:00) 26.9 18.61 (22:00) 12.22 (22:30) 0 0 0 0 0
03-09-2017 30.9 (14:20) 20.2 (00:00) 25.6 15.28 (16:30) 11.11 (16:30) 0 0 0 0 0
02-09-2017 27.6 (14:00) 19.4 (00:00) 23.5 15 (15:30) 10.28 (16:50) 0 0 0 0 0
01-09-2017 27.5 (15:50) 19.7 (00:00) 23.6 17.22 (12:50) 11.11 (14:20) 0 0 0 0 0
31-08-2017 26.9 (17:20) 20.6 (00:00) 23.8 17.78 (11:50) 11.67 (16:00) 0 0 0 0 0
30-08-2017 27.5 (15:20) 20.6 (00:00) 24.1 16.67 (16:40) 10.83 (16:50) 0 0 0 0 0
29-08-2017 27.4 (14:20) 20.1 (00:00) 23.8 17.5 (12:30) 11.67 (00:30) 0 0 0 0 0
28-08-2017 27.4 (15:00) 20.4 (00:00) 23.9 17.22 (13:20) 11.67 (13:10) 0 0 0 0 0
27-08-2017 31.3 (13:20) 21.5 (00:00) 26.4 18.33 (22:50) 13.61 (22:00) 0 0 0 0 0
26-08-2017 33.9 (13:40) 21.2 (00:00) 27.6 13.89 (23:40) 10.28 (23:40) 0 0 0 0 0

Gráficas

Temp. máximas Temp. mínimas Temp. medias Precipitaciones Rachas de viento máximas Velocidades máximas media en intervalos de 10 minutos

Datos horarios

Fecha y hora oficial Temperatura (ºC) Velocidad del viento (km/h) Dirección del viento Racha (km/h) Dirección de racha Precipitación (mm) Presión (hPa) Tendencia (hPa) Humedad (%)
2017-09-24 23:00:00 29.1 19 Norte 29 Norte 0 -- -- 38
2017-09-24 22:00:00 27.6 12 Norte 27 Este 0 -- -- 41
2017-09-24 21:00:00 28.9 4 Oeste 32 Sudoeste 0 -- -- 36
2017-09-24 20:00:00 27.7 8 Sudoeste 27 Oeste 0 -- -- 44
2017-09-24 19:00:00 25.2 5 Nordeste 30 Sudeste 0 -- -- 72
2017-09-24 18:00:00 28.7 9 Sudoeste 24 Este 0 -- -- 59
2017-09-24 17:00:00 28.7 9 Sudoeste 22 Nordeste 0 -- -- 53
2017-09-24 16:00:00 30.5 12 Este 22 Este 0 -- -- 53
2017-09-24 15:00:00 31.7 12 Nordeste 19 Este 0 -- -- 49
2017-09-24 14:00:00 31.8 9 Este 24 Nordeste 0 -- -- 45
2017-09-24 13:00:00 31.8 12 Sudeste 28 Este 0 -- -- 47
2017-09-24 12:00:00 28.6 3 Oeste 18 Nordeste 0 -- -- 40
2017-09-24 11:00:00 27.8 6 Este 14 Nordeste 0 -- -- 48
2017-09-24 10:00:00 24.6 9 Nordeste 14 Este 0 -- -- 63
2017-09-24 09:00:00 24.6 8 Norte 19 Noroeste 0 -- -- 46
2017-09-24 08:00:00 21.4 13 Norte 22 Noroeste 0 -- -- 53
2017-09-24 07:00:00 20.8 13 Norte 18 Norte 0 -- -- 60
2017-09-24 06:00:00 23.4 14 Norte 23 Norte 0 -- -- 49
2017-09-24 05:00:00 22.9 14 Norte 22 Norte 0 -- -- 52
2017-09-24 04:00:00 22.7 15 Norte 24 Norte 0 -- -- 56
2017-09-24 03:00:00 22.3 14 Norte 23 Norte 0 -- -- 59
2017-09-24 02:00:00 22.2 15 Norte 25 Norte 0 -- -- 64
2017-09-24 01:00:00 22.1 14 Norte 36 Norte 0 -- -- 67
2017-09-24 00:00:00 20.7 22 Norte 36 Norte 0 -- -- 76
2017-09-23 23:00:00 21.1 24 Norte 41 Norte 0 -- -- 75
2017-09-23 22:00:00 20.9 26 Norte 40 Norte 0 -- -- 77
2017-09-23 21:00:00 21.6 26 Norte 39 Norte 0 -- -- 72
2017-09-23 20:00:00 22.5 24 Norte 58 Norte 0 -- -- 67
2017-09-23 19:00:00 23.1 39 Norte 61 Norte 0 -- -- 66
2017-09-23 18:00:00 24.2 41 Norte 69 Norte 0 -- -- 63
2017-09-23 17:00:00 24.4 42 Norte 68 Norte 0 -- -- 63
2017-09-23 16:00:00 25.1 45 Norte 67 Nordeste 0 -- -- 60
2017-09-23 15:00:00 25.2 42 Norte 63 Norte 0 -- -- 59
2017-09-23 14:00:00 25.9 40 Norte 58 Norte 0 -- -- 57
2017-09-23 13:00:00 25.8 39 Norte 57 Norte 0 -- -- 53
2017-09-23 12:00:00 24.9 32 Norte 49 Norte 0 -- -- 57
2017-09-23 11:00:00 25.3 30 Norte 54 Norte 0 -- -- 50
2017-09-23 10:00:00 24.4 27 Norte 81 Norte 0 -- -- 49
2017-09-23 09:00:00 24.8 37 Norte 56 Norte 0 -- -- 45
2017-09-23 08:00:00 26.3 33 Norte 55 Norte 0 -- -- 36
2017-09-23 07:00:00 25.7 32 Norte 56 Norte 0 -- -- 35
2017-09-23 06:00:00 25.5 35 Norte 68 Norte 0 -- -- 29
2017-09-23 05:00:00 24.1 39 Norte 69 Norte 0 -- -- 30
2017-09-23 04:00:00 23.8 37 Norte 59 Norte 0 -- -- 35
2017-09-23 03:00:00 23 33 Norte 61 Norte 0 -- -- 36
2017-09-23 02:00:00 21.2 39 Norte 68 Norte 0 -- -- 54
2017-09-23 01:00:00 20.9 41 Norte 69 Norte 0 -- -- 59
2017-09-23 00:00:00 21.5 39 Norte 61 Norte 0 -- -- 56
2017-09-22 23:00:00 22.4 31 Norte 62 Norte 0 -- -- 45
2017-09-22 22:00:00 23 34 Norte 58 Noroeste 0 -- -- 45
2017-09-22 21:00:00 22.5 27 Norte 60 Noroeste 0 -- -- 49
2017-09-22 20:00:00 21.4 40 Norte 66 Norte 0 -- -- 62
2017-09-22 19:00:00 22.5 42 Norte 68 Norte 0 -- -- 56
2017-09-22 18:00:00 24.3 32 Norte 69 Norte 0 -- -- 51
2017-09-22 17:00:00 24.5 41 Norte 72 Norte 0 -- -- 53
2017-09-22 16:00:00 25.1 44 Norte 74 Norte 0 -- -- 53
2017-09-22 15:00:00 25.6 48 Norte 82 Norte 0 -- -- 49
2017-09-22 14:00:00 25 56 Norte 81 Norte 0 -- -- 50
2017-09-22 13:00:00 25 45 Norte 73 Norte 0 -- -- 51
2017-09-22 12:00:00 23.7 45 Norte 68 Norte 0 -- -- 55
2017-09-22 11:00:00 22.4 35 Norte 68 Norte 0 -- -- 62
2017-09-22 10:00:00 21.3 44 Norte 73 Norte 0 -- -- 64
2017-09-22 09:00:00 19.9 53 Norte 75 Norte 0 -- -- 66
2017-09-22 08:00:00 19 40 Norte 61 Norte 0 -- -- 73
2017-09-22 07:00:00 19.8 34 Norte 59 Norte 0 -- -- 67
2017-09-22 06:00:00 19 36 Norte 53 Norte 0 -- -- 69
2017-09-22 05:00:00 19.1 26 Norte 51 Norte 0 -- -- 72
2017-09-22 04:00:00 19.8 24 Norte 59 Norte 0 -- -- 71
2017-09-22 03:00:00 19.5 37 Norte 57 Norte 0 -- -- 71
2017-09-22 02:00:00 19.5 26 Norte 62 Norte 0 -- -- 76
2017-09-22 01:00:00 19.6 26 Norte 51 Norte 0 -- -- 80
2017-09-22 00:00:00 19.4 28 Norte 47 Norte 0.2 -- -- 84
2017-09-21 23:00:00 20.4 22 Norte 51 Norte 0 -- -- 74
2017-09-21 22:00:00 20.6 27 Norte 49 Norte 0 -- -- 74
2017-09-21 21:00:00 20.7 30 Norte 51 Norte 0 -- -- 70
2017-09-21 20:00:00 21 30 Norte 48 Norte 0 -- -- 65
2017-09-21 19:00:00 21.7 30 Norte 52 Norte 0 -- -- 65
2017-09-21 18:00:00 23 28 Norte 51 Norte 0 -- -- 63
2017-09-21 17:00:00 23.1 32 Norte 56 Norte 0 -- -- 62
2017-09-21 16:00:00 24.6 30 Norte 51 Nordeste 0 -- -- 61
2017-09-21 15:00:00 24.3 27 Norte 48 Noroeste 0 -- -- 61
2017-09-21 14:00:00 24.6 26 Norte 52 Norte 0 -- -- 55
2017-09-21 13:00:00 23.1 27 Norte 52 Norte 0.4 -- -- 65
2017-09-21 12:00:00 22.7 30 Norte 51 Noroeste 0.2 -- -- 72
2017-09-21 11:00:00 21.3 28 Norte 46 Norte 0.2 -- -- 75
2017-09-21 10:00:00 21.8 24 Norte 45 Norte 0 -- -- 66
2017-09-21 09:00:00 20.8 24 Norte 44 Noroeste 0 -- -- 69
2017-09-21 08:00:00 20.6 22 Norte 50 Noroeste 0 -- -- 64
2017-09-21 07:00:00 20.2 25 Norte 46 Norte 0 -- -- 66
2017-09-21 06:00:00 20 28 Norte 44 Norte 0 -- -- 72
2017-09-21 05:00:00 20.6 24 Norte 44 Norte 0 -- -- 69
2017-09-21 04:00:00 20.4 28 Norte 44 Norte 0 -- -- 74
2017-09-21 03:00:00 21.1 30 Norte 46 Norte 0 -- -- 66
2017-09-21 02:00:00 21 29 Norte 48 Norte 0 -- -- 67
2017-09-21 01:00:00 21.2 22 Norte 50 Nordeste 0 -- -- 65
2017-09-21 00:00:00 21.2 28 Norte 48 Norte 0 -- -- 64
2017-09-20 23:00:00 21 28 Norte 48 Norte 0 -- -- 66
2017-09-20 22:00:00 21.3 30 Norte 43 Norte 0 -- -- 63
2017-09-20 21:00:00 21.2 27 Norte 44 Nordeste 0 -- -- 66
2017-09-20 20:00:00 22.2 21 Norte 41 Nordeste 0 -- -- 64
2017-09-20 19:00:00 22.2 32 Nordeste 48 Nordeste 0 -- -- 67
2017-09-20 18:00:00 23.6 33 Nordeste 49 Nordeste 0 -- -- 58
2017-09-20 17:00:00 23.5 32 Nordeste 50 Nordeste 0 -- -- 69
2017-09-20 16:00:00 25 30 Nordeste 51 Nordeste 0 -- -- 65
2017-09-20 15:00:00 25.5 32 Nordeste 55 Nordeste 0 -- -- 63
2017-09-20 14:00:00 25.7 32 Nordeste 54 Norte 0 -- -- 62
2017-09-20 13:00:00 24.6 33 Nordeste 50 Nordeste 0 -- -- 66
2017-09-20 12:00:00 24.1 28 Nordeste 47 Nordeste 0 -- -- 70
2017-09-20 11:00:00 23.2 26 Nordeste 39 Nordeste 0 -- -- 71
2017-09-20 10:00:00 21.8 27 Norte 43 Norte 0 -- -- 75
2017-09-20 09:00:00 19.9 30 Norte 42 Norte 0 -- -- 82
2017-09-20 08:00:00 19 24 Norte 39 Norte 0 -- -- 85
2017-09-20 07:00:00 18.9 23 Norte 36 Norte 0 -- -- 84
2017-09-20 06:00:00 19 23 Norte 39 Norte 0 -- -- 83
2017-09-20 05:00:00 18.9 26 Norte 40 Norte 0 -- -- 86
2017-09-20 04:00:00 19.2 28 Norte 55 Norte 0 -- -- 83
2017-09-20 03:00:00 19.3 41 Norte 52 Norte 0 -- -- 82
2017-09-20 02:00:00 19.4 35 Norte 50 Norte 0 -- -- 83
2017-09-20 01:00:00 20.1 40 Norte 53 Norte 0 -- -- 73
2017-09-20 00:00:00 21 38 Norte 52 Norte 0 -- -- 65
2017-09-19 23:00:00 20.8 38 Norte 48 Norte 0 -- -- 73
2017-09-19 22:00:00 20.5 40 Norte 51 Norte 0 -- -- 77
2017-09-19 21:00:00 22.3 27 Norte 46 Norte 0 -- -- 64
2017-09-19 20:00:00 23 26 Norte 40 Norte 0 -- -- 68
2017-09-19 19:00:00 25 18 Norte 35 Nordeste 0 -- -- 63
2017-09-19 18:00:00 25.2 23 Nordeste 34 Norte 0 -- -- 63
2017-09-19 17:00:00 25.7 22 Nordeste 40 Nordeste 0 -- -- 62
2017-09-19 16:00:00 26 26 Nordeste 44 Nordeste 0 -- -- 61
2017-09-19 15:00:00 25.9 28 Nordeste 44 Nordeste 0 -- -- 61
2017-09-19 14:00:00 26.5 24 Nordeste 43 Nordeste 0 -- -- 59
2017-09-19 13:00:00 25.7 30 Nordeste 43 Nordeste 0 -- -- 61
2017-09-19 12:00:00 24.9 27 Nordeste 44 Nordeste 0 -- -- 64
2017-09-19 11:00:00 22.9 25 Nordeste 39 Nordeste 0 -- -- 71
2017-09-19 10:00:00 21.3 24 Nordeste 36 Nordeste 0 -- -- 75
2017-09-19 09:00:00 19.5 13 Norte 27 Nordeste 0 -- -- 82
2017-09-19 08:00:00 18.9 6 Oeste 16 Sudoeste 0 -- -- 84
2017-09-19 07:00:00 19.4 9 Oeste 44 Norte 0 -- -- 76
2017-09-19 06:00:00 20.1 25 Norte 33 Nordeste 0 -- -- 68
2017-09-19 05:00:00 19.6 15 Norte 33 Nordeste 0 -- -- 76
2017-09-19 04:00:00 20.9 23 Nordeste 38 Nordeste 0 -- -- 60
2017-09-19 03:00:00 22.9 25 Nordeste 41 Norte 0 -- -- 57
2017-09-19 02:00:00 21.5 27 Nordeste 37 Nordeste 0 -- -- 58
2017-09-19 01:00:00 20.6 26 Nordeste 39 Nordeste 0 -- -- 73
2017-09-19 00:00:00 21.4 24 Nordeste 44 Nordeste 0 -- -- 61
2017-09-18 23:00:00 20.3 33 Nordeste 44 Nordeste 0 -- -- 76
2017-09-18 22:00:00 22.8 30 Nordeste 44 Nordeste 0 -- -- 50
2017-09-18 21:00:00 20.2 33 Nordeste 44 Nordeste 0 -- -- 83
2017-09-18 20:00:00 20.7 30 Nordeste 48 Nordeste 0 -- -- 82
2017-09-18 19:00:00 22.8 28 Nordeste 47 Nordeste 0 -- -- 73
2017-09-18 18:00:00 24.6 33 Nordeste 50 Nordeste 0 -- -- 67
2017-09-18 17:00:00 27.7 28 Nordeste 43 Nordeste 0 -- -- 56
2017-09-18 16:00:00 27.2 33 Nordeste 46 Nordeste 0 -- -- 56
2017-09-18 15:00:00 26.1 32 Nordeste 46 Nordeste 0 -- -- 58
2017-09-18 14:00:00 25.5 32 Nordeste 52 Nordeste 0 -- -- 59
2017-09-18 13:00:00 25.2 33 Norte 55 Norte 0 -- -- 61
2017-09-18 12:00:00 23.8 40 Nordeste 56 Nordeste 0 -- -- 66
2017-09-18 11:00:00 22.5 39 Norte 56 Nordeste 0 -- -- 70
2017-09-18 10:00:00 21.5 39 Norte 58 Norte 0 -- -- 71
2017-09-18 09:00:00 19.7 40 Norte 59 Norte 0 -- -- 78
2017-09-18 08:00:00 19 35 Nordeste 52 Norte 0 -- -- 78
2017-09-18 07:00:00 19.1 32 Nordeste 53 Nordeste 0 -- -- 78
2017-09-18 06:00:00 19.3 31 Nordeste 48 Nordeste 0 -- -- 76
2017-09-18 05:00:00 21.4 23 Norte 46 Nordeste 0 -- -- 41
2017-09-18 04:00:00 20.7 24 Nordeste 39 Norte 0 -- -- 56
2017-09-18 03:00:00 20.6 25 Norte 44 Norte 0 -- -- 59
2017-09-18 02:00:00 23.1 27 Norte 41 Norte 0 -- -- 43
2017-09-18 01:00:00 20.1 27 Norte 45 Norte 0 -- -- 75
2017-09-18 00:00:00 19.9 35 Norte 49 Norte 0 -- -- 78
2017-09-17 23:00:00 20 36 Norte 55 Norte 0 -- -- 78
2017-09-17 22:00:00 19.9 31 Norte 48 Norte 0 -- -- 81
2017-09-17 21:00:00 20.2 28 Norte 43 Norte 0 -- -- 80
2017-09-17 20:00:00 20.6 26 Norte 41 Nordeste 0 -- -- 79
2017-09-17 19:00:00 22.1 29 Norte 51 Nordeste 0 -- -- 73
2017-09-17 18:00:00 23.7 32 Nordeste 54 Nordeste 0 -- -- 67
2017-09-17 17:00:00 24.7 37 Nordeste 55 Nordeste 0 -- -- 62
2017-09-17 16:00:00 25.4 39 Nordeste 55 Nordeste 0 -- -- 61
2017-09-17 15:00:00 26 37 Nordeste 51 Nordeste 0 -- -- 59
2017-09-17 14:00:00 26.1 36 Nordeste 53 Norte 0 -- -- 59
2017-09-17 13:00:00 25 39 Nordeste 54 Nordeste 0 -- -- 62
2017-09-17 12:00:00 24.8 35 Norte 55 Nordeste 0 -- -- 61
2017-09-17 11:00:00 23.4 36 Nordeste 56 Norte 0 -- -- 65
2017-09-17 10:00:00 21.7 39 Norte 59 Norte 0 -- -- 70
2017-09-17 09:00:00 19.8 37 Norte 53 Norte 0 -- -- 77
2017-09-17 08:00:00 19.1 36 Norte 53 Norte 0 -- -- 81
2017-09-17 07:00:00 19.2 39 Norte 54 Nordeste 0 -- -- 80
2017-09-17 06:00:00 19.2 36 Norte 53 Norte 0 -- -- 79
2017-09-17 05:00:00 19.2 34 Norte 52 Norte 0 -- -- 80
2017-09-17 04:00:00 19.3 33 Norte 51 Norte 0 -- -- 81
2017-09-17 03:00:00 19.6 32 Norte 57 Norte 0 -- -- 82
2017-09-17 02:00:00 19.7 38 Norte 58 Norte 0 -- -- 82
2017-09-17 01:00:00 19.8 37 Norte 54 Norte 0 -- -- 82
2017-09-17 00:00:00 20 33 Norte 50 Norte 0 -- -- 81
2017-09-16 23:00:00 20.2 32 Norte 48 Norte 0 -- -- 81
2017-09-16 22:00:00 20.3 35 Norte 47 Norte 0 -- -- 81
2017-09-16 21:00:00 20.4 31 Norte 47 Norte 0 -- -- 81
2017-09-16 20:00:00 21.1 28 Norte 46 Norte 0 -- -- 78
2017-09-16 19:00:00 22.2 33 Nordeste 47 Norte 0 -- -- 74
2017-09-16 18:00:00 24 30 Nordeste 47 Nordeste 0 -- -- 67
2017-09-16 17:00:00 25.2 32 Nordeste 50 Nordeste 0 -- -- 63
2017-09-16 16:00:00 25.1 37 Norte 60 Norte 0 -- -- 64
2017-09-16 15:00:00 25.9 40 Norte 62 Norte 0 -- -- 62
2017-09-16 14:00:00 25.1 37 Norte 59 Nordeste 0 -- -- 64
2017-09-16 13:00:00 24 36 Norte 55 Norte 0 -- -- 68
2017-09-16 12:00:00 24 40 Norte 58 Norte 0 -- -- 67
2017-09-16 11:00:00 23.5 40 Norte 54 Norte 0 -- -- 69
2017-09-16 10:00:00 22.4 36 Norte 52 Norte 0 -- -- 75
2017-09-16 09:00:00 20.9 37 Norte 51 Nordeste 0 -- -- 81
2017-09-16 08:00:00 20.9 28 Nordeste 53 Norte 0 -- -- 80
2017-09-16 07:00:00 20.6 35 Norte 52 Norte 0 -- -- 83
2017-09-16 06:00:00 20.6 31 Nordeste 45 Nordeste 0 -- -- 84
2017-09-16 05:00:00 21.9 22 Nordeste 30 Norte 0 -- -- 75
2017-09-16 04:00:00 22.8 17 Norte 35 Nordeste 0 -- -- 65
2017-09-16 03:00:00 22.5 15 Nordeste 29 Norte 0 -- -- 72
2017-09-16 02:00:00 22.6 18 Norte 31 Nordeste 0 -- -- 65
2017-09-16 01:00:00 23.4 17 Norte 45 Norte 0 -- -- 58
2017-09-16 00:00:00 23.1 33 Norte 48 Norte 0 -- -- 61
2017-09-15 23:00:00 23.9 32 Norte 51 Nordeste 0 -- -- 55
2017-09-15 22:00:00 23.5 32 Nordeste 51 Norte 0 -- -- 61
2017-09-15 21:00:00 22.7 30 Norte 45 Nordeste 0 -- -- 74
2017-09-15 20:00:00 23.7 27 Nordeste 43 Norte 0 -- -- 72
2017-09-15 19:00:00 24.4 30 Nordeste 46 Norte 0 -- -- 69
2017-09-15 18:00:00 25.9 28 Nordeste 40 Nordeste 0 -- -- 65
2017-09-15 17:00:00 26.3 33 Nordeste 46 Norte 0 -- -- 65
2017-09-15 16:00:00 28.9 28 Nordeste 40 Norte 0 -- -- 57
2017-09-15 15:00:00 29.8 21 Nordeste 34 Nordeste 0 -- -- 51
2017-09-15 14:00:00 33.2 18 Norte 35 Norte 0 -- -- 28
2017-09-15 13:00:00 29.9 19 Nordeste 34 Nordeste 0 -- -- 51
2017-09-15 12:00:00 29.7 19 Nordeste 32 Nordeste 0 -- -- 52
2017-09-15 11:00:00 26.1 15 Nordeste 22 Nordeste 0 -- -- 64
2017-09-15 10:00:00 30.4 14 Norte 28 Norte 0 -- -- 29
2017-09-15 09:00:00 28.1 19 Norte 30 Norte 0 -- -- 31
2017-09-15 08:00:00 28 14 Norte 41 Norte 0 -- -- 32
2017-09-15 07:00:00 24.7 27 Nordeste 40 Norte 0 -- -- 49
2017-09-15 06:00:00 25.2 4 Noroeste 35 Norte 0 -- -- 47
2017-09-15 05:00:00 28.7 30 Norte 41 Norte 0 -- -- 29
2017-09-15 04:00:00 28.3 31 Norte 47 Norte 0 -- -- 34
2017-09-15 03:00:00 28.3 26 Norte 40 Norte 0 -- -- 34
2017-09-15 02:00:00 26.5 29 Norte 45 Norte 0 -- -- 43
2017-09-15 01:00:00 28.5 19 Norte 33 Norte 0 -- -- 40
2017-09-15 00:00:00 26.3 9 Norte 20 Norte 0 -- -- 51
2017-09-14 23:00:00 23.6 13 Norte 17 Nordeste 0 -- -- 75
2017-09-14 22:00:00 24.4 11 Nordeste 15 Nordeste 0 -- -- 71
2017-09-14 21:00:00 29.6 9 Norte 14 Norte 0 -- -- 42
2017-09-14 20:00:00 28.8 9 Norte 14 Nordeste 0 -- -- 50
2017-09-14 19:00:00 30.7 9 Nordeste 17 Nordeste 0 -- -- 41
2017-09-14 18:00:00 30.6 10 Nordeste 19 Nordeste 0 -- -- 50
2017-09-14 17:00:00 31.9 12 Nordeste 23 Nordeste 0 -- -- 45
2017-09-14 16:00:00 32.6 13 Nordeste 26 Nordeste 0 -- -- 43
2017-09-14 15:00:00 31.8 14 Nordeste 22 Este 0 -- -- 46
2017-09-14 14:00:00 31.4 13 Nordeste 23 Este 0 -- -- 45
2017-09-14 13:00:00 30.7 16 Nordeste 27 Nordeste 0 -- -- 44
2017-09-14 12:00:00 31.5 17 Nordeste 27 Nordeste 0 -- -- 42
2017-09-14 11:00:00 30.7 13 Nordeste 20 Nordeste 0 -- -- 43
2017-09-14 10:00:00 28.9 8 Nordeste 14 Norte 0 -- -- 44
2017-09-14 09:00:00 25.4 8 Nordeste 14 Noroeste 0 -- -- 44
2017-09-14 08:00:00 26.3 12 Norte 16 Norte 0 -- -- 37
2017-09-14 07:00:00 26.4 12 Norte 17 Norte 0 -- -- 36
2017-09-14 06:00:00 27.1 10 Norte 21 Norte 0 -- -- 35
2017-09-14 05:00:00 26.4 12 Norte 16 Norte 0 -- -- 34
2017-09-14 04:00:00 27.5 8 Norte 22 Norte 0 -- -- 33
2017-09-14 03:00:00 26.9 6 Norte 18 Norte 0 -- -- 34
2017-09-14 02:00:00 24.6 9 Norte 17 Norte 0 -- -- 43
2017-09-14 01:00:00 25.3 9 Noroeste 18 Norte 0 -- -- 36
2017-09-14 00:00:00 23.3 8 Norte 12 Nordeste 0 -- -- 51
2017-09-13 23:00:00 23.4 5 Norte 21 Norte 0 -- -- 54
2017-09-13 22:00:00 23.8 15 Norte 27 Nordeste 0 -- -- 57
2017-09-13 21:00:00 22.4 13 Nordeste 18 Nordeste 0 -- -- 77
2017-09-13 20:00:00 23 13 Nordeste 24 Nordeste 0 -- -- 75
2017-09-13 19:00:00 24.8 15 Nordeste 25 Este 0 -- -- 70
2017-09-13 18:00:00 26.3 17 Nordeste 26 Nordeste 0 -- -- 65
2017-09-13 17:00:00 26.5 17 Nordeste 26 Nordeste 0 -- -- 65
2017-09-13 16:00:00 27.3 15 Nordeste 26 Este 0 -- -- 61
2017-09-13 15:00:00 26.3 13 Nordeste 22 Nordeste 0 -- -- 63
2017-09-13 14:00:00 26.8 11 Nordeste 24 Este 0 -- -- 61
2017-09-13 13:00:00 26.3 10 Este 20 Este 0 -- -- 61
2017-09-13 12:00:00 26 11 Nordeste 21 Este 0 -- -- 60
2017-09-13 11:00:00 24.5 9 Nordeste 19 Este 0 -- -- 62
2017-09-13 10:00:00 23 12 Nordeste 19 Nordeste 0 -- -- 68
2017-09-13 09:00:00 20.5 8 Nordeste 15 Norte 0 -- -- 75
2017-09-13 08:00:00 17.6 7 Norte 11 Norte 0 -- -- 79
2017-09-13 07:00:00 17.8 0 Calma 6 Oeste 0 -- -- 80
2017-09-13 06:00:00 18.1 4 Oeste 6 Norte 0 -- -- 81
2017-09-13 05:00:00 18.7 4 Oeste 22 Norte 0 -- -- 79
2017-09-13 04:00:00 18.8 12 Nordeste 18 Nordeste 0 -- -- 79
2017-09-13 03:00:00 19.3 12 Norte 19 Norte 0 -- -- 78
2017-09-13 02:00:00 20.1 11 Norte 22 Norte 0 -- -- 74
2017-09-13 01:00:00 20.1 17 Norte 27 Norte 0 -- -- 74
2017-09-13 00:00:00 20 14 Norte 23 Norte 0 -- -- 78
2017-09-12 23:00:00 20.8 15 Norte 22 Norte 0 -- -- 77
2017-09-12 22:00:00 20.7 14 Norte 26 Norte 0 -- -- 77
2017-09-12 21:00:00 21.1 21 Norte 29 Norte 0 -- -- 75
2017-09-12 20:00:00 22 20 Norte 32 Norte 0 -- -- 69
2017-09-12 19:00:00 23.6 21 Nordeste 35 Nordeste 0 -- -- 66
2017-09-12 18:00:00 25.2 27 Nordeste 38 Nordeste 0 -- -- 61
2017-09-12 17:00:00 27.3 22 Nordeste 38 Nordeste 0 -- -- 53
2017-09-12 16:00:00 27.4 27 Nordeste 44 Nordeste 0 -- -- 52
2017-09-12 15:00:00 27.1 28 Nordeste 48 Nordeste 0 -- -- 53
2017-09-12 14:00:00 27 27 Nordeste 44 Nordeste 0 -- -- 53
2017-09-12 13:00:00 27.8 28 Nordeste 42 Nordeste 0 -- -- 44
2017-09-12 12:00:00 25.2 29 Norte 43 Nordeste 0 -- -- 56
2017-09-12 11:00:00 24.4 24 Norte 34 Norte 0 -- -- 56
2017-09-12 10:00:00 22.6 22 Norte 33 Norte 0 -- -- 59
2017-09-12 09:00:00 20.9 12 Norte 19 Norte 0 -- -- 58
2017-09-12 08:00:00 17.8 6 Nordeste 12 Norte 0 -- -- 67
2017-09-12 07:00:00 18.2 3 Norte 21 Norte 0 -- -- 79
2017-09-12 06:00:00 19.4 15 Norte 24 Norte 0 -- -- 64
2017-09-12 05:00:00 19.2 11 Norte 34 Nordeste 0 -- -- 64
2017-09-12 04:00:00 19.6 18 Norte 28 Norte 0 -- -- 68
2017-09-12 03:00:00 19.9 11 Norte 24 Norte 0 -- -- 65
2017-09-12 02:00:00 19.5 14 Norte 28 Norte 0 -- -- 79
2017-09-12 01:00:00 19.9 20 Norte 30 Norte 0 -- -- 83
2017-09-12 00:00:00 20.3 19 Norte 34 Norte 0 -- -- 83
2017-09-11 23:00:00 20.3 27 Norte 39 Norte 0 -- -- 82
2017-09-11 22:00:00 20.8 22 Norte 39 Norte 0 -- -- 78
2017-09-11 21:00:00 20.8 20 Norte 38 Nordeste 0 -- -- 78
2017-09-11 20:00:00 21.9 11 Norte 27 Noroeste 0 -- -- 76
2017-09-11 19:00:00 22.5 10 Sur 30 Sudeste 0 -- -- 77
2017-09-11 18:00:00 23.1 17 Sudeste 27 Sudeste 0 -- -- 74
2017-09-11 17:00:00 23.4 12 Sudeste 30 Sudeste 0 -- -- 74
2017-09-11 16:00:00 23.2 10 Este 31 Sur 0 -- -- 74
2017-09-11 15:00:00 24.5 17 Sudeste 49 Sudoeste 0 -- -- 68
2017-09-11 14:00:00 26.9 22 Sudoeste 49 Sudoeste 0 -- -- 57
2017-09-11 13:00:00 27.9 23 Norte 42 Norte 0 -- -- 49
2017-09-11 12:00:00 26 23 Norte 42 Norte 0 -- -- 54
2017-09-11 11:00:00 23.9 27 Norte 39 Norte 0 -- -- 64
2017-09-11 10:00:00 20.3 22 Norte 37 Norte 0 -- -- 84
2017-09-11 09:00:00 18.9 23 Norte 37 Norte 0 -- -- 89
2017-09-11 08:00:00 19.2 27 Nordeste 38 Nordeste 0 -- -- 86
2017-09-11 07:00:00 19.5 27 Norte 42 Norte 0 -- -- 79
2017-09-11 06:00:00 19.3 27 Norte 45 Norte 0 -- -- 81
2017-09-11 05:00:00 18.7 24 Norte 43 Norte 0 -- -- 89
2017-09-11 04:00:00 19.3 24 Norte 43 Norte 0 -- -- 88
2017-09-11 03:00:00 19.2 27 Norte 43 Norte 0 -- -- 88
2017-09-11 02:00:00 19.9 28 Norte 40 Norte 0 -- -- 83
2017-09-11 01:00:00 20.5 27 Norte 50 Norte 0 -- -- 75
2017-09-11 00:00:00 20.3 30 Norte 54 Norte 0 -- -- 79
2017-09-10 23:00:00 21.4 27 Norte 61 Norte 0 -- -- 69
2017-09-10 22:00:00 21.4 32 Norte 60 Norte 0 -- -- 68
2017-09-10 21:00:00 21.9 28 Norte 55 Norte 0 -- -- 65
2017-09-10 20:00:00 21.8 38 Norte 55 Norte 0 -- -- 63
2017-09-10 19:00:00 23.5 38 Norte 65 Norte 0 -- -- 57
2017-09-10 18:00:00 25 36 Norte 64 Norte 0 -- -- 53
2017-09-10 17:00:00 25.4 43 Norte 61 Norte 0 -- -- 54
2017-09-10 16:00:00 26.6 39 Norte 68 Norte 0 -- -- 51
2017-09-10 15:00:00 26.9 37 Norte 63 Norte 0 -- -- 47
2017-09-10 14:00:00 26.7 40 Norte 66 Norte 0 -- -- 48
2017-09-10 13:00:00 25.5 45 Norte 69 Nordeste 0 -- -- 52
2017-09-10 12:00:00 24.3 50 Norte 72 Norte 0 -- -- 56
2017-09-10 11:00:00 23.2 41 Norte 60 Norte 0 -- -- 58
2017-09-10 10:00:00 21.7 35 Norte 55 Norte 0 -- -- 65
2017-09-10 09:00:00 20.3 40 Norte 59 Norte 0 -- -- 68
2017-09-10 08:00:00 19.3 38 Norte 58 Norte 0 -- -- 75
2017-09-10 07:00:00 19.7 41 Norte 59 Norte 0 -- -- 76
2017-09-10 06:00:00 19.6 39 Norte 67 Norte 0 -- -- 72
2017-09-10 05:00:00 19.7 46 Norte 61 Norte 0 -- -- 74
2017-09-10 04:00:00 19.6 38 Norte 62 Nordeste 0 -- -- 72
2017-09-10 03:00:00 19.6 41 Nordeste 59 Nordeste 0 -- -- 74
2017-09-10 02:00:00 20.1 44 Norte 59 Norte 0 -- -- 71
2017-09-10 01:00:00 20.1 42 Norte 59 Norte 0 -- -- 72
2017-09-10 00:00:00 20.7 40 Norte 56 Norte 0 -- -- 71
2017-09-09 23:00:00 20.7 45 Norte 61 Norte 0 -- -- 74
2017-09-09 22:00:00 21.2 37 Norte 54 Norte 0 -- -- 73
2017-09-09 21:00:00 23.6 12 Noroeste 30 Noroeste 0 -- -- 63
2017-09-09 20:00:00 25.4 12 Noroeste 41 Nordeste 0 -- -- 57
2017-09-09 19:00:00 26.2 28 Norte 49 Norte 0 -- -- 57
2017-09-09 18:00:00 27.8 31 Norte 50 Norte 0 -- -- 53
2017-09-09 17:00:00 28.7 32 Nordeste 50 Nordeste 0 -- -- 50
2017-09-09 16:00:00 30.1 36 Nordeste 49 Nordeste 0 -- -- 45
2017-09-09 15:00:00 30.9 33 Nordeste 48 Nordeste 0 -- -- 43
2017-09-09 14:00:00 30.2 33 Nordeste 53 Nordeste 0 -- -- 46
2017-09-09 13:00:00 28.8 35 Nordeste 51 Nordeste 0 -- -- 50
2017-09-09 12:00:00 28.6 29 Nordeste 45 Norte 0 -- -- 49
2017-09-09 11:00:00 28.2 24 Norte 37 Norte 0 -- -- 43
2017-09-09 10:00:00 26.4 15 Nordeste 22 Nordeste 0 -- -- 44
2017-09-09 09:00:00 21.2 3 Nordeste 8 Nordeste 0 -- -- 77
2017-09-09 08:00:00 20.3 5 Sudoeste 10 Sudoeste 0 -- -- 80
2017-09-09 07:00:00 20.6 4 Oeste 15 Norte 0 -- -- 68
2017-09-09 06:00:00 21.3 12 Norte 26 Nordeste 0 -- -- 63
2017-09-09 05:00:00 22.8 8 Nordeste 22 Norte 0 -- -- 49
2017-09-09 04:00:00 28.3 18 Norte 42 Norte 0 -- -- 21
2017-09-09 03:00:00 27.6 31 Norte 44 Norte 0 -- -- 22
2017-09-09 02:00:00 27.7 25 Norte 37 Norte 0 -- -- 23
2017-09-09 01:00:00 28.3 24 Norte 41 Norte 0 -- -- 21
2017-09-09 00:00:00 28.5 26 Norte 40 Norte 0 -- -- 23
2017-09-08 23:00:00 28.6 31 Norte 40 Norte 0 -- -- 25
2017-09-08 22:00:00 23.5 6 Nordeste 13 Nordeste 0 -- -- 51
2017-09-08 21:00:00 24.4 3 Este 14 Sudeste 0 -- -- 59
2017-09-08 20:00:00 28.3 6 Nordeste 37 Nordeste 0 -- -- 46
2017-09-08 19:00:00 29.1 30 Nordeste 46 Nordeste 0 -- -- 39
2017-09-08 18:00:00 29.8 36 Norte 49 Nordeste 0 -- -- 39
2017-09-08 17:00:00 31.3 29 Nordeste 42 Nordeste 0 -- -- 42
2017-09-08 16:00:00 32.8 25 Nordeste 37 Nordeste 0 -- -- 40
2017-09-08 15:00:00 33.2 27 Nordeste 35 Nordeste 0 -- -- 38
2017-09-08 14:00:00 33.6 21 Norte 39 Nordeste 0 -- -- 29
2017-09-08 13:00:00 28.8 29 Nordeste 42 Nordeste 0 -- -- 52
2017-09-08 12:00:00 29 24 Nordeste 44 Nordeste 0 -- -- 52
2017-09-08 11:00:00 26 23 Nordeste 39 Nordeste 0 -- -- 61
2017-09-08 10:00:00 23.3 7 Nordeste 16 Norte 0 -- -- 71
2017-09-08 09:00:00 20.5 2 Sudoeste 9 Sur 0 -- -- 88
2017-09-08 08:00:00 19.5 5 Sudoeste 10 Sudoeste 0 -- -- 86
2017-09-08 07:00:00 19.6 4 Sudoeste 10 Sudoeste 0 -- -- 84
2017-09-08 06:00:00 19.9 3 Sudoeste 9 Sudoeste 0 -- -- 85
2017-09-08 05:00:00 20.9 4 Sudoeste 10 Sur 0 -- -- 78
2017-09-08 04:00:00 24.9 9 Sudeste 33 Norte 0 -- -- 55
2017-09-08 03:00:00 25.9 18 Norte 29 Norte 0 -- -- 38
2017-09-08 02:00:00 20.1 6 Noroeste 17 Nordeste 0 -- -- 74
2017-09-08 01:00:00 20.6 4 Sur 10 Sur 0 -- -- 86
2017-09-08 00:00:00 21 5 Sur 17 Sudoeste 0 -- -- 83
2017-09-07 23:00:00 21.7 7 Sur 26 Sur 0 -- -- 79
2017-09-07 22:00:00 22.7 4 Sudoeste 12 Sudoeste 0 -- -- 70
2017-09-07 21:00:00 23.1 6 Nordeste 23 Nordeste 0 -- -- 67
2017-09-07 20:00:00 23.7 12 Nordeste 40 Nordeste 0 -- -- 66
2017-09-07 19:00:00 25.3 26 Norte 44 Nordeste 0 -- -- 61
2017-09-07 18:00:00 26.7 32 Nordeste 49 Nordeste 0 -- -- 57
2017-09-07 17:00:00 28.3 31 Nordeste 52 Nordeste 0 -- -- 53
2017-09-07 16:00:00 28.5 35 Nordeste 53 Nordeste 0 -- -- 51
2017-09-07 15:00:00 31.4 27 Norte 43 Norte 0 -- -- 45
2017-09-07 14:00:00 31.9 7 Sur 30 Norte 0 -- -- 43
2017-09-07 13:00:00 31.3 18 Norte 44 Norte 0 -- -- 43
2017-09-07 12:00:00 28.8 27 Norte 41 Norte 0 -- -- 50
2017-09-07 11:00:00 27.2 15 Norte 35 Norte 0 -- -- 53
2017-09-07 10:00:00 24.8 12 Sur 28 Norte 0 -- -- 58
2017-09-07 09:00:00 22.4 9 Oeste 45 Norte 0 -- -- 65
2017-09-07 08:00:00 21.3 12 Noroeste 37 Norte 0 -- -- 68
2017-09-07 07:00:00 20.8 10 Norte 25 Norte 0 -- -- 70
2017-09-07 06:00:00 21.9 11 Sudeste 40 Noroeste 0 -- -- 65
2017-09-07 05:00:00 24.3 33 Norte 65 Norte 0 -- -- 53
2017-09-07 04:00:00 24.9 33 Norte 59 Norte 0 -- -- 48
2017-09-07 03:00:00 25.4 33 Norte 62 Norte 0 -- -- 44
2017-09-07 02:00:00 25.4 39 Norte 68 Norte 0 -- -- 47
2017-09-07 01:00:00 25.1 42 Norte 66 Norte 0 -- -- 43
2017-09-07 00:00:00 26 20 Norte 40 Norte 0 -- -- 32
2017-09-06 23:00:00 21.8 9 Sur 21 Sur 0 -- -- 65
2017-09-06 22:00:00 22.5 9 Norte 24 Sudoeste 0 -- -- 63
2017-09-06 21:00:00 24.1 13 Oeste 33 Noroeste 0 -- -- 61
2017-09-06 20:00:00 25.7 12 Oeste 26 Noroeste 0 -- -- 49
2017-09-06 19:00:00 27.7 6 Sudoeste 29 Sudoeste 0 -- -- 48
2017-09-06 18:00:00 30.6 14 Norte 41 Noroeste 0 -- -- 36
2017-09-06 17:00:00 31.4 31 Norte 50 Norte 0 -- -- 32
2017-09-06 16:00:00 32.8 32 Norte 51 Norte 0 -- -- 29
2017-09-06 15:00:00 30.2 35 Norte 59 Norte 0 -- -- 37
2017-09-06 14:00:00 28.5 39 Norte 59 Norte 0 -- -- 46
2017-09-06 13:00:00 27.6 42 Norte 59 Norte 0 -- -- 46
2017-09-06 12:00:00 27.6 38 Norte 55 Norte 0 -- -- 45
2017-09-06 11:00:00 26.1 32 Norte 59 Norte 0 -- -- 50
2017-09-06 10:00:00 24 7 Oeste 24 Sudoeste 0 -- -- 58
2017-09-06 09:00:00 21.8 6 Sudoeste 13 Oeste 0 -- -- 70
2017-09-06 08:00:00 19.8 0 Calma 25 Norte 0 -- -- 76
2017-09-06 07:00:00 20.9 8 Noroeste 31 Norte 0 -- -- 68
2017-09-06 06:00:00 21.8 4 Sudoeste 39 Norte 0 -- -- 60
2017-09-06 05:00:00 24.4 24 Norte 49 Norte 0 -- -- 42
2017-09-06 04:00:00 26.1 29 Norte 47 Norte 0 -- -- 24
2017-09-06 03:00:00 24 28 Norte 56 Norte 0 -- -- 37
2017-09-06 02:00:00 25.2 33 Norte 58 Norte 0 -- -- 28
2017-09-06 01:00:00 26.2 35 Norte 59 Norte 0 -- -- 23
2017-09-06 00:00:00 26 31 Norte 57 Norte 0 -- -- 31
2017-09-05 23:00:00 25.3 36 Norte 64 Norte 0 -- -- 44
2017-09-05 22:00:00 23.4 39 Norte 67 Norte 0 -- -- 56
2017-09-05 21:00:00 21.8 46 Norte 66 Norte 0 -- -- 70
2017-09-05 20:00:00 22.6 36 Norte 62 Norte 0 -- -- 68
2017-09-05 19:00:00 24.6 39 Norte 61 Nordeste 0 -- -- 60
2017-09-05 18:00:00 26.4 41 Norte 64 Norte 0 -- -- 55
2017-09-05 17:00:00 27.1 42 Norte 66 Norte 0 -- -- 53
2017-09-05 16:00:00 27.3 48 Norte 66 Norte 0 -- -- 51
2017-09-05 15:00:00 28.1 43 Norte 59 Norte 0 -- -- 49
2017-09-05 14:00:00 27.9 42 Norte 59 Norte 0 -- -- 49
2017-09-05 13:00:00 27.7 40 Norte 60 Norte 0 -- -- 49
2017-09-05 12:00:00 26 44 Norte 61 Norte 0 -- -- 54
2017-09-05 11:00:00 25 41 Norte 58 Norte 0 -- -- 56
2017-09-05 10:00:00 24.7 35 Norte 50 Norte 0 -- -- 53
2017-09-05 09:00:00 23.8 32 Norte 47 Norte 0 -- -- 51
2017-09-05 08:00:00 24.5 35 Norte 52 Norte 0 -- -- 29
2017-09-05 07:00:00 25.3 37 Norte 53 Norte 0 -- -- 32
2017-09-05 06:00:00 25.1 35 Norte 59 Norte 0 -- -- 39
2017-09-05 05:00:00 24.9 39 Norte 59 Norte 0 -- -- 42
2017-09-05 04:00:00 24.9 34 Norte 52 Norte 0 -- -- 39
2017-09-05 03:00:00 25.2 38 Norte 54 Norte 0 -- -- 39
2017-09-05 02:00:00 25 36 Norte 56 Norte 0 -- -- 41
2017-09-05 01:00:00 24.9 38 Norte 57 Norte 0 -- -- 43
2017-09-05 00:00:00 25.2 41 Norte 61 Norte 0 -- -- 42
2017-09-04 23:00:00 25.3 41 Norte 63 Norte 0 -- -- 41
2017-09-04 22:00:00 25.9 41 Norte 67 Norte 0 -- -- 41
2017-09-04 21:00:00 28 36 Norte 53 Norte 0 -- -- 34
2017-09-04 20:00:00 26.4 28 Norte 45 Nordeste 0 -- -- 50
2017-09-04 19:00:00 28.6 32 Norte 44 Norte 0 -- -- 46
2017-09-04 18:00:00 31.2 29 Norte 45 Norte 0 -- -- 39
2017-09-04 17:00:00 32.3 31 Norte 46 Norte 0 -- -- 31
2017-09-04 16:00:00 33 31 Norte 47 Nordeste 0 -- -- 26
2017-09-04 15:00:00 33.4 24 Nordeste 46 Norte 0 -- -- 34
2017-09-04 14:00:00 31.2 31 Nordeste 45 Nordeste 0 -- -- 41
2017-09-04 13:00:00 30.9 28 Nordeste 43 Nordeste 0 -- -- 42
2017-09-04 12:00:00 30.1 23 Nordeste 38 Nordeste 0 -- -- 50
2017-09-04 11:00:00 27.4 23 Nordeste 33 Nordeste 0 -- -- 58
2017-09-04 10:00:00 25.3 21 Nordeste 30 Nordeste 0 -- -- 63
2017-09-04 09:00:00 23.7 17 Nordeste 25 Nordeste 0 -- -- 62
2017-09-04 08:00:00 20.7 3 Este 11 Este 0 -- -- 74
2017-09-04 07:00:00 20.6 4 Sur 9 Sudoeste 0 -- -- 76
2017-09-04 06:00:00 21.2 5 Oeste 22 Norte 0 -- -- 71
2017-09-04 05:00:00 23.6 7 Norte 35 Norte 0 -- -- 60
2017-09-04 04:00:00 25 23 Norte 37 Norte 0 -- -- 42
2017-09-04 03:00:00 23.1 19 Nordeste 28 Norte 0 -- -- 55
2017-09-04 02:00:00 25.2 19 Nordeste 37 Norte 0 -- -- 41
2017-09-04 01:00:00 26.5 26 Norte 43 Nordeste 0 -- -- 40
2017-09-04 00:00:00 26.4 24 Norte 40 Norte 0 -- -- 41
2017-09-03 23:00:00 23.7 18 Nordeste 33 Nordeste 0 -- -- 59
2017-09-03 22:00:00 23.4 19 Nordeste 27 Nordeste 0 -- -- 62
2017-09-03 21:00:00 22.9 16 Norte 27 Nordeste 0 -- -- 70
2017-09-03 20:00:00 24 13 Nordeste 40 Nordeste 0 -- -- 67
2017-09-03 19:00:00 24.8 28 Nordeste 50 Norte 0 -- -- 65
2017-09-03 18:00:00 26 32 Norte 50 Nordeste 0 -- -- 60
2017-09-03 17:00:00 27 37 Nordeste 55 Nordeste 0 -- -- 58
2017-09-03 16:00:00 28 35 Nordeste 54 Nordeste 0 -- -- 54
2017-09-03 15:00:00 29 32 Nordeste 49 Nordeste 0 -- -- 52
2017-09-03 14:00:00 30.4 26 Nordeste 41 Nordeste 0 -- -- 49
2017-09-03 13:00:00 28.7 30 Nordeste 48 Norte 0 -- -- 53
2017-09-03 12:00:00 26 32 Nordeste 48 Norte 0 -- -- 61
2017-09-03 11:00:00 24.5 29 Nordeste 43 Nordeste 0 -- -- 67
2017-09-03 10:00:00 23 30 Nordeste 43 Nordeste 0 -- -- 70
2017-09-03 09:00:00 21.4 13 Norte 46 Norte 0 -- -- 73
2017-09-03 08:00:00 20.4 27 Norte 43 Norte 0 -- -- 79
2017-09-03 07:00:00 20.4 23 Norte 43 Norte 0 -- -- 81
2017-09-03 06:00:00 20.5 23 Norte 41 Norte 0 -- -- 82
2017-09-03 05:00:00 21.1 26 Norte 42 Norte 0 -- -- 76
2017-09-03 04:00:00 21 26 Norte 40 Norte 0 -- -- 76
2017-09-03 03:00:00 21.1 28 Norte 44 Norte 0 -- -- 74
2017-09-03 02:00:00 21.5 25 Norte 43 Norte 0 -- -- 76
2017-09-03 01:00:00 21 24 Norte 47 Norte 0 -- -- 74
2017-09-03 00:00:00 20.9 28 Norte 46 Norte 0 -- -- 73
2017-09-02 23:00:00 21 32 Norte 46 Norte 0 -- -- 74
2017-09-02 22:00:00 21.3 28 Nordeste 42 Norte 0 -- -- 77
2017-09-02 21:00:00 22.1 22 Norte 41 Norte 0 -- -- 68
2017-09-02 20:00:00 22.5 28 Norte 42 Norte 0 -- -- 67
2017-09-02 19:00:00 24.5 24 Norte 44 Norte 0 -- -- 59
2017-09-02 18:00:00 25.1 32 Norte 54 Norte 0 -- -- 59
2017-09-02 17:00:00 26.2 32 Norte 52 Norte 0 -- -- 55
2017-09-02 16:00:00 26.9 32 Norte 54 Nordeste 0 -- -- 54
2017-09-02 15:00:00 27.1 33 Nordeste 49 Norte 0 -- -- 53
2017-09-02 14:00:00 27.6 26 Nordeste 48 Nordeste 0 -- -- 50
2017-09-02 13:00:00 26.9 29 Nordeste 44 Nordeste 0 -- -- 52
2017-09-02 12:00:00 26 27 Norte 46 Norte 0 -- -- 55
2017-09-02 11:00:00 24 32 Norte 48 Nordeste 0 -- -- 60
2017-09-02 10:00:00 23 25 Norte 42 Norte 0 -- -- 62
2017-09-02 09:00:00 21.3 17 Norte 35 Norte 0 -- -- 65
2017-09-02 08:00:00 19.5 21 Norte 35 Norte 0 -- -- 75
2017-09-02 07:00:00 19.6 21 Norte 37 Norte 0 -- -- 74
2017-09-02 06:00:00 19.8 26 Norte 43 Norte 0 -- -- 74
2017-09-02 05:00:00 19.8 27 Norte 43 Norte 0 -- -- 76
2017-09-02 04:00:00 19.8 24 Norte 50 Norte 0 -- -- 76
2017-09-02 03:00:00 20.1 25 Norte 41 Norte 0 -- -- 75
2017-09-02 02:00:00 20.4 24 Norte 44 Norte 0 -- -- 69
2017-09-02 01:00:00 20.3 24 Norte 40 Norte 0 -- -- 74
2017-09-02 00:00:00 20.6 26 Norte 44 Norte 0 -- -- 73
2017-09-01 23:00:00 20.7 28 Norte 44 Norte 0 -- -- 74
2017-09-01 22:00:00 20.9 29 Norte 45 Norte 0 -- -- 73
2017-09-01 21:00:00 22 24 Norte 48 Norte 0 -- -- 62
2017-09-01 20:00:00 22.1 31 Norte 51 Norte 0 -- -- 59
2017-09-01 19:00:00 22.9 33 Norte 48 Norte 0 -- -- 56
2017-09-01 18:00:00 23.9 32 Norte 49 Norte 0 -- -- 56
2017-09-01 17:00:00 25.8 15 Noroeste 45 Norte 0 -- -- 55
2017-09-01 16:00:00 27.2 16 Oeste 50 Norte 0 -- -- 51
2017-09-01 15:00:00 26 30 Norte 57 Norte 0 -- -- 54
2017-09-01 14:00:00 26 37 Norte 59 Norte 0 -- -- 58
2017-09-01 13:00:00 26.6 38 Norte 62 Norte 0 -- -- 48
2017-09-01 12:00:00 25.9 31 Norte 48 Norte 0 -- -- 49
2017-09-01 11:00:00 24 28 Norte 51 Norte 0 -- -- 54
2017-09-01 10:00:00 22.9 29 Norte 48 Norte 0 -- -- 53
2017-09-01 09:00:00 20.7 32 Norte 51 Norte 0 -- -- 61
2017-09-01 08:00:00 19.8 33 Norte 50 Norte 0 -- -- 65
2017-09-01 07:00:00 19.9 35 Norte 49 Norte 0 -- -- 70
2017-09-01 06:00:00 20 31 Norte 48 Norte 0 -- -- 67
2017-09-01 05:00:00 20.7 30 Norte 57 Norte 0 -- -- 63
2017-09-01 04:00:00 20.7 28 Norte 55 Norte 0 -- -- 63
2017-09-01 03:00:00 20.2 34 Norte 52 Norte 0 -- -- 77
2017-09-01 02:00:00 21.2 35 Norte 51 Norte 0 -- -- 74
2017-09-01 01:00:00 22.3 24 Norte 50 Norte 0 -- -- 68
2017-09-01 00:00:00 22.4 33 Norte 49 Nordeste 0 -- -- 67
2017-08-31 23:00:00 22.5 30 Norte 58 Norte 0 -- -- 68
2017-08-31 22:00:00 22.6 36 Norte 55 Norte 0 -- -- 69
2017-08-31 21:00:00 23.4 26 Norte 64 Norte 0 -- -- 55
2017-08-31 20:00:00 23.1 30 Norte 58 Norte 0 -- -- 60
2017-08-31 19:00:00 24.4 35 Norte 52 Norte 0 -- -- 56
2017-08-31 18:00:00 26.1 32 Norte 56 Norte 0 -- -- 49
2017-08-31 17:00:00 26.6 27 Norte 61 Norte 0 -- -- 51
2017-08-31 16:00:00 26.3 42 Norte 62 Norte 0 -- -- 50
2017-08-31 15:00:00 26.2 36 Norte 56 Norte 0 -- -- 54
2017-08-31 14:00:00 26.4 28 Norte 52 Noroeste 0 -- -- 57
2017-08-31 13:00:00 26.1 26 Norte 64 Norte 0 -- -- 55
2017-08-31 12:00:00 25.3 39 Norte 64 Norte 0 -- -- 54
2017-08-31 11:00:00 23.1 37 Norte 58 Norte 0 -- -- 64
2017-08-31 10:00:00 22.8 30 Norte 63 Norte 0 -- -- 67
2017-08-31 09:00:00 22.6 35 Norte 63 Norte 0 -- -- 64
2017-08-31 08:00:00 21.2 32 Norte 54 Norte 0 -- -- 68
2017-08-31 07:00:00 21.6 34 Norte 59 Norte 0 -- -- 66
2017-08-31 06:00:00 21.8 33 Norte 63 Noroeste 0 -- -- 67
2017-08-31 05:00:00 21.1 35 Norte 58 Norte 0 -- -- 67
2017-08-31 04:00:00 20.9 36 Norte 56 Norte 0 -- -- 74
2017-08-31 03:00:00 20.6 28 Norte 50 Nordeste 0 -- -- 73
2017-08-31 02:00:00 21.3 28 Norte 54 Norte 0 -- -- 72
2017-08-31 01:00:00 21.7 24 Norte 49 Norte 0 -- -- 64
2017-08-31 00:00:00 22.3 27 Norte 45 Norte 0 -- -- 53
2017-08-30 23:00:00 22.2 23 Norte 50 Norte 0 -- -- 62
2017-08-30 22:00:00 22.1 28 Norte 51 Norte 0 -- -- 65
2017-08-30 21:00:00 22.7 24 Norte 46 Noroeste 0 -- -- 62
2017-08-30 20:00:00 22.8 22 Norte 58 Norte 0 -- -- 60
2017-08-30 19:00:00 24.3 33 Norte 56 Norte 0 -- -- 55
2017-08-30 18:00:00 25.6 37 Norte 55 Norte 0 -- -- 51
2017-08-30 17:00:00 26.4 38 Norte 60 Norte 0 -- -- 52
2017-08-30 16:00:00 27 36 Norte 56 Nordeste 0 -- -- 48
2017-08-30 15:00:00 27.2 33 Norte 55 Norte 0 -- -- 48
2017-08-30 14:00:00 26.8 29 Norte 50 Norte 0 -- -- 51
2017-08-30 13:00:00 26.6 25 Norte 52 Noroeste 0 -- -- 50
2017-08-30 12:00:00 25.4 28 Norte 50 Norte 0 -- -- 53
2017-08-30 11:00:00 24.4 32 Norte 53 Norte 0 -- -- 60
2017-08-30 10:00:00 23.4 27 Norte 47 Norte 0 -- -- 63
2017-08-30 09:00:00 21.6 22 Norte 46 Norte 0 -- -- 66
2017-08-30 08:00:00 20.6 23 Norte 45 Norte 0 -- -- 74
2017-08-30 07:00:00 22 25 Norte 45 Norte 0 -- -- 63
2017-08-30 06:00:00 21.2 24 Norte 48 Norte 0 -- -- 64
2017-08-30 05:00:00 21.2 24 Norte 40 Norte 0 -- -- 64
2017-08-30 04:00:00 21 21 Norte 43 Norte 0 -- -- 66
2017-08-30 03:00:00 21.2 21 Norte 48 Norte 0 -- -- 64
2017-08-30 02:00:00 20.6 33 Norte 51 Norte 0 -- -- 73
2017-08-30 01:00:00 21.8 26 Norte 51 Norte 0 -- -- 62
2017-08-30 00:00:00 21.1 33 Norte 48 Norte 0 -- -- 71
2017-08-29 23:00:00 21.6 28 Norte 49 Norte 0 -- -- 65
2017-08-29 22:00:00 21.2 31 Norte 54 Norte 0 -- -- 70
2017-08-29 21:00:00 21.7 27 Norte 42 Norte 0 -- -- 66
2017-08-29 20:00:00 22.7 27 Norte 49 Norte 0 -- -- 59
2017-08-29 19:00:00 24.3 30 Norte 52 Norte 0 -- -- 58
2017-08-29 18:00:00 25.2 39 Norte 58 Norte 0 -- -- 54
2017-08-29 17:00:00 26.2 33 Norte 59 Nordeste 0 -- -- 51
2017-08-29 16:00:00 26.3 40 Nordeste 58 Nordeste 0 -- -- 55
2017-08-29 15:00:00 26.9 34 Nordeste 56 Nordeste 0 -- -- 51
2017-08-29 14:00:00 26.6 36 Nordeste 59 Nordeste 0 -- -- 52
2017-08-29 13:00:00 26.2 37 Nordeste 63 Nordeste 0 -- -- 51
2017-08-29 12:00:00 25.6 36 Norte 52 Norte 0 -- -- 53
2017-08-29 11:00:00 24.1 30 Norte 55 Norte 0 -- -- 56
2017-08-29 10:00:00 22.5 32 Norte 50 Norte 0 -- -- 60
2017-08-29 09:00:00 21.2 29 Norte 48 Norte 0 -- -- 66
2017-08-29 08:00:00 20.3 35 Norte 55 Norte 0 -- -- 66
2017-08-29 07:00:00 20.2 35 Norte 49 Norte 0 -- -- 66
2017-08-29 06:00:00 20.2 31 Norte 48 Norte 0 -- -- 70
2017-08-29 05:00:00 20.2 30 Norte 55 Norte 0 -- -- 69
2017-08-29 04:00:00 20.5 31 Norte 52 Norte 0 -- -- 67
2017-08-29 03:00:00 20.6 36 Norte 50 Norte 0 -- -- 67
2017-08-29 02:00:00 20.5 35 Norte 60 Norte 0 -- -- 67
2017-08-29 01:00:00 20.7 40 Norte 59 Norte 0 -- -- 66
2017-08-29 00:00:00 20.5 30 Norte 53 Norte 0 -- -- 73
2017-08-28 23:00:00 21 34 Norte 54 Norte 0 -- -- 70
2017-08-28 22:00:00 21.2 33 Norte 57 Norte 0 -- -- 66
2017-08-28 21:00:00 21.4 41 Norte 58 Norte 0 -- -- 66
2017-08-28 20:00:00 22.2 36 Norte 57 Norte 0 -- -- 63
2017-08-28 19:00:00 23.9 37 Norte 53 Nordeste 0 -- -- 58
2017-08-28 18:00:00 25.4 33 Norte 53 Norte 0 -- -- 57
2017-08-28 17:00:00 26.1 38 Norte 56 Norte 0 -- -- 52
2017-08-28 16:00:00 26.7 33 Norte 57 Nordeste 0 -- -- 56
2017-08-28 15:00:00 27.4 31 Norte 56 Nordeste 0 -- -- 54
2017-08-28 14:00:00 27 30 Norte 62 Norte 0 -- -- 57
2017-08-28 13:00:00 25.5 37 Norte 56 Nordeste 0 -- -- 62
2017-08-28 12:00:00 24.9 38 Nordeste 54 Nordeste 0 -- -- 65
2017-08-28 11:00:00 23.5 33 Norte 59 Norte 0 -- -- 71
2017-08-28 10:00:00 23.1 35 Norte 55 Norte 0 -- -- 68
2017-08-28 09:00:00 22.1 31 Norte 48 Nordeste 0 -- -- 72
2017-08-28 08:00:00 20.5 27 Norte 47 Norte 0 -- -- 78
2017-08-28 07:00:00 20.6 31 Nordeste 46 Norte 0 -- -- 77
2017-08-28 06:00:00 20.6 31 Norte 47 Norte 0 -- -- 79
2017-08-28 05:00:00 20.8 22 Norte 42 Norte 0 -- -- 79
2017-08-28 04:00:00 21.3 27 Norte 40 Norte 0 -- -- 75
2017-08-28 03:00:00 21.8 28 Norte 58 Norte 0 -- -- 70
2017-08-28 02:00:00 21.2 35 Norte 52 Norte 0 -- -- 74
2017-08-28 01:00:00 21.4 32 Norte 56 Norte 0 -- -- 75
2017-08-28 00:00:00 21.5 42 Norte 66 Norte 0 -- -- 75
2017-08-27 23:00:00 21.9 43 Norte 66 Norte 0 -- -- 74
2017-08-27 22:00:00 22.2 49 Norte 63 Nordeste 0 -- -- 70
2017-08-27 21:00:00 23.1 40 Nordeste 58 Nordeste 0 -- -- 69
2017-08-27 20:00:00 25.2 28 Norte 53 Norte 0 -- -- 58
2017-08-27 19:00:00 25.6 34 Norte 50 Norte 0 -- -- 59
2017-08-27 18:00:00 25.1 37 Nordeste 50 Norte 0 -- -- 61
2017-08-27 17:00:00 27.7 26 Norte 54 Nordeste 0 -- -- 54
2017-08-27 16:00:00 29.4 36 Nordeste 51 Nordeste 0 -- -- 50
2017-08-27 15:00:00 29.9 35 Nordeste 56 Norte 0 -- -- 47
2017-08-27 14:00:00 29.3 38 Nordeste 53 Nordeste 0 -- -- 48
2017-08-27 13:00:00 29.4 29 Nordeste 48 Norte 0 -- -- 49
2017-08-27 12:00:00 30 26 Norte 39 Norte 0 -- -- 46
2017-08-27 11:00:00 27.5 20 Nordeste 46 Norte 0 -- -- 53
2017-08-27 10:00:00 24.2 37 Norte 52 Norte 0 -- -- 62
2017-08-27 09:00:00 24.9 26 Nordeste 41 Nordeste 0 -- -- 53
2017-08-27 08:00:00 26.8 20 Norte 38 Norte 0 -- -- 21
2017-08-27 07:00:00 28.9 28 Norte 39 Norte 0 -- -- 16
2017-08-27 06:00:00 29.2 26 Norte 41 Norte 0 -- -- 16
2017-08-27 05:00:00 27.3 18 Norte 45 Norte 0 -- -- 21
2017-08-27 04:00:00 27.3 27 Norte 39 Norte 0 -- -- 23
2017-08-27 03:00:00 28.8 23 Norte 41 Norte 0 -- -- 14
2017-08-27 02:00:00 28.2 30 Norte 50 Norte 0 -- -- 14
2017-08-27 01:00:00 29 37 Norte 50 Norte 0 -- -- 13
2017-08-27 00:00:00 29.1 34 Norte 50 Norte 0 -- -- 15
2017-08-26 23:00:00 30 23 Norte 35 Norte 0 -- -- 22
2017-08-26 22:00:00 29.2 29 Nordeste 43 Nordeste 0 -- -- 27
2017-08-26 21:00:00 28.2 8 Este 26 Norte 0 -- -- 44
2017-08-26 20:00:00 29.6 18 Norte 38 Norte 0 -- -- 40
2017-08-26 19:00:00 30.3 22 Norte 35 Nordeste 0 -- -- 43
2017-08-26 18:00:00 30.6 21 Nordeste 36 Norte 0 -- -- 43
2017-08-26 17:00:00 32.6 12 Oeste 37 Nordeste 0 -- -- 45
2017-08-26 16:00:00 33.4 19 Nordeste 43 Nordeste 0 -- -- 39
2017-08-26 15:00:00 32.2 26 Nordeste 39 Nordeste 0 -- -- 46
2017-08-26 14:00:00 32.8 16 Norte 33 Nordeste 0 -- -- 46
2017-08-26 13:00:00 32.6 12 Nordeste 33 Este 0 -- -- 43
2017-08-26 12:00:00 30.2 17 Nordeste 25 Nordeste 0 -- -- 55
2017-08-26 11:00:00 27.6 9 Sudeste 22 Sudeste 0 -- -- 62
2017-08-26 10:00:00 24.5 8 Sur 14 Sudeste 0 -- -- 74
2017-08-26 09:00:00 23.1 6 Este 20 Sudeste 0 -- -- 78
2017-08-26 08:00:00 21.8 9 Este 21 Norte 0 -- -- 84
2017-08-26 07:00:00 21.3 15 Nordeste 22 Nordeste 0 -- -- 87
2017-08-26 06:00:00 21.3 6 Nordeste 20 Sudeste 0 -- -- 89
2017-08-26 05:00:00 21.7 4 Nordeste 15 Sur 0 -- -- 89
2017-08-26 04:00:00 21.7 4 Sur 7 Sur 0 -- -- 90
2017-08-26 03:00:00 21.9 2 Sur 10 Sur 0 -- -- 91
2017-08-26 02:00:00 22 4 Sur 8 Sur 0 -- -- 90
2017-08-26 01:00:00 22.5 3 Norte 8 Sur 0 -- -- 88
2017-08-26 00:00:00 22.4 6 Sur 9 Sur 0 -- -- 89